(°C)
10°
10°
10°
10°
10°
10°
10°
(°C)
სსდ
სსდ
სსდ
სსდ
სსდ
სსდ
სდ
(კმ/სთ)
24-41
24-42
25-41
24-41
24-39
24-37
24-39
(მმ)
0
0
1.7
0
0
0
0
(%)
39
45
45
39
32
33
33

მზის სიმაღლე

/ -13.1°
sun-icon
UV 0
08:03
17:57
კლებადი მთვარე (201°)
18:29
09:54

METAR 57.92°ჩრ. 56.02°აღმ. (USPP)-თვის

დრო პირობები ტემპერატურა/
ნამი
ქარი ხილვადობა ამინდი ღრუბლები წნევა ცვლილება დაუმუშავებელი
MVFR 10°C / 8°C 230º 14kt >10km - Overcast 1400ft 992 No Significant change. Runway 21: Wet or puddles, 51-100% contamination with 1mm, friction coefficient 0.50. USPP 221400Z 23007MPS 9999 OVC014 10/08 Q0992 R21/290150 NOSIG RMK QFE734
MVFR 10°C / 8°C 230º 14kt >10km - Overcast 1300ft 992 No Significant change. Runway 21: Wet or puddles, 51-100% contamination with 1mm, friction coefficient 0.50. USPP 221330Z 23007MPS 9999 OVC013 10/08 Q0992 R21/290150 NOSIG RMK QFE734
MVFR 9°C / 7°C 230º 14kt >10km - Overcast 1100ft 992 Temporary: Visibility 1500. Mist . RMK QFE734 . Runway 21: Wet or puddles, 51-100% contamination with 1mm, friction coefficient 0.50. USPP 221300Z 23007MPS 9999 OVC011 09/07 Q0992 R21/290150 TEMPO 1500 BR RMK QFE734
IFR 9°C / 7°C 230º 14kt >10km - Overcast 900ft 992 Temporary: Visibility 1500. Mist . RMK QFE734 . Runway 21: Wet or puddles, 51-100% contamination with 1mm, friction coefficient 0.50. USPP 221230Z 23007MPS 9999 OVC009 09/07 Q0992 R21/290150 TEMPO 1500 BR RMK QFE734
IFR 9°C / 7°C 220º 16kt 9000m - Overcast 700ft 992 Temporary: Visibility 1500. Mist . RMK QFE733 . Runway 21: Wet or puddles, 51-100% contamination with 1mm, friction coefficient 0.50. USPP 221200Z 22008MPS 9000 OVC007 09/07 Q0992 R21/290150 TEMPO 1500 BR RMK QFE733
IFR 9°C / 7°C 220º 17kt 9000m - Overcast 600ft 992 Temporary: Visibility 1500. Mist . RMK QBB200 QFE733 . Runway 21: Wet or puddles, 51-100% contamination with 1mm, friction coefficient 0.50. USPP 221130Z 22009MPS 9000 OVC006 09/07 Q0992 R21/290150 TEMPO 1500 BR RMK QBB200 QFE733
IFR 8°C / 7°C 220º 16kt 9000m - Broken Clouds 600ft
Overcast 1700ft
992 No Significant change. Runway 21: Wet or puddles, 51-100% contamination with 1mm, friction coefficient 0.50. USPP 221100Z 22008MPS 9000 BKN006 OVC017 08/07 Q0992 R21/290150 NOSIG RMK QBB190 QFE734
IFR 8°C / 7°C 210º 16kt >10km - Broken Clouds 700ft
Overcast 1700ft
992 No Significant change. Runway 21: Wet or puddles, 51-100% contamination with 1mm, friction coefficient 0.50. USPP 221030Z 21008MPS 9999 BKN007 OVC017 08/07 Q0992 R21/290150 NOSIG RMK QFE734
IFR 8°C / 7°C 210º 12kt >10km Light Rain 1.00mm precipitation Vertical Visibility of 0ft.
Overcast 1700ft
993 No Significant change. Runway 21: Wet or puddles, 51-100% contamination with 1mm, friction coefficient 0.50. USPP 221000Z 21006MPS 9999 -RA BKN009 OVC017 08/07 Q0993 R21/290150 NOSIG RMK QFE734
IFR 8°C / 6°C 220º 14kt. Wind Shear present on Runway 21. >10km Light Rain 1.00mm precipitation Vertical Visibility of 0ft.
Overcast 2700ft
993 No Significant change. Runway 21: Wet or puddles, 51-100% contamination with 1mm, friction coefficient 0.50. USPP 220930Z 22007MPS 9999 -RA BKN007 OVC027 08/06 Q0993 WS R21 R21/290150 NOSIG RMK QFE734
IFR 7°C / 6°C 220º 16kt. Wind Shear present on Runway 21. >10km Light Rain 1.00mm precipitation Vertical Visibility of 0ft.
Overcast 2300ft
993 No Significant change. Runway 21: Wet or puddles, 51-100% contamination with 1mm, friction coefficient 0.50. USPP 220900Z 22008MPS 9999 -RA BKN005 OVC023 07/06 Q0993 WS R21 R21/290150 NOSIG RMK QBB160 QFE734
IFR 7°C / 6°C 220º 16kt >10km - Broken Clouds 600ft
Broken Clouds 2300ft
994 No Significant change. Runway 21: Wet or puddles, 51-100% contamination with 1mm, friction coefficient 0.50. USPP 220830Z 22008MPS 9999 BKN006 BKN023 07/06 Q0994 R21/290150 NOSIG RMK QBB190 QFE735
IFR 7°C / 6°C 220º 12kt >10km Light Rain 1.00mm precipitation Vertical Visibility of 0ft.
Overcast 2600ft
993 No Significant change. Runway 21: Wet or puddles, 51-100% contamination with 1mm, friction coefficient 0.50. USPP 220800Z 22006MPS 9999 -RA BKN007 OVC026 07/06 Q0993 R21/290150 NOSIG RMK QFE735
IFR 7°C / 6°C 220º 14kt >10km Light Rain 1.00mm precipitation Vertical Visibility of 0ft.
Overcast 2800ft
994 No Significant change. Runway 21: Wet or puddles, 51-100% contamination with 1mm, friction coefficient 0.50. USPP 220730Z 22007MPS 9999 -RA BKN006 OVC028 07/06 Q0994 R21/290150 NOSIG RMK QBB180 QFE735
LIFR 7°C / 5°C 230º 10kt >10km - Overcast 400ft 994 No Significant change. Runway 21: Wet or puddles, 51-100% contamination with 1mm, friction coefficient 0.50. USPP 220700Z 23005MPS 9999 OVC004 07/05 Q0994 R21/290150 NOSIG RMK QBB130 QFE735
LIFR 6°C / 5°C 220º 14kt >10km - Overcast 400ft 994 No Significant change. Runway 21: Wet or puddles, 51-100% contamination with 1mm, friction coefficient 0.50. USPP 220630Z 22007MPS 9999 OVC004 06/05 Q0994 R21/290150 NOSIG RMK QBB130 QFE735
LIFR 6°C / 5°C 220º 12kt >10km - Overcast 400ft 994 No Significant change. Runway 21: Wet or puddles, 51-100% contamination with 1mm, friction coefficient 0.50. USPP 220600Z 22006MPS 9999 OVC004 06/05 Q0994 R21/290150 NOSIG RMK QBB140 QFE735
LIFR 6°C / 4°C 220º 12kt >10km - Overcast 400ft 994 No Significant change. Runway 21: Wet or puddles, 51-100% contamination with 1mm, friction coefficient 0.50. USPP 220530Z 22006MPS 9999 OVC004 06/04 Q0994 R21/290150 NOSIG RMK QBB130 QFE735
LIFR 5°C / 4°C 210º 12kt >10km - Overcast 400ft 995 No Significant change. Runway 21: Wet or puddles, 51-100% contamination with 1mm, friction coefficient 0.50. USPP 220500Z 21006MPS 9999 OVC004 05/04 Q0995 R21/290150 NOSIG RMK QBB130 QFE735
LIFR 5°C / 4°C 220º 14kt >10km - Overcast 300ft 995 No Significant change. Runway 21: Wet or puddles, 51-100% contamination with 1mm, friction coefficient 0.50. USPP 220430Z 22007MPS 9999 OVC003 05/04 Q0995 R21/290150 NOSIG RMK QBB110 QFE736
LIFR 4°C / 3°C 220º 12kt >10km - Overcast 400ft 995 No Significant change. Runway 21: Wet or puddles, 11-25% contamination with 1mm, friction coefficient 0.50. USPP 220400Z 22006MPS 9999 OVC004 04/03 Q0995 R21/220150 NOSIG RMK QBB120 QFE736
LIFR 4°C / 3°C 230º 10kt >10km - Overcast 400ft 995 No Significant change. Runway 21: Wet or puddles, 11-25% contamination with 1mm, friction coefficient 0.50. USPP 220330Z 23005MPS 9999 OVC004 04/03 Q0995 R21/220150 NOSIG RMK QBB140 QFE735
IFR 3°C / 2°C 230º 8kt >10km - Overcast 500ft 995 No Significant change. Runway 21: Wet or puddles, 11-25% contamination with 1mm, friction coefficient 0.50. USPP 220300Z 23004MPS 9999 OVC005 03/02 Q0995 R21/220150 NOSIG RMK QBB150 QFE735
LIFR 3°C / 2°C 220º 10kt >10km - Overcast 400ft 995 No Significant change. Runway 21: Wet or puddles, 11-25% contamination with 1mm, friction coefficient 0.50. USPP 220230Z 22005MPS 9999 OVC004 03/02 Q0995 R21/220150 NOSIG RMK QBB130 QFE735

MVFR

10°C / 8°C

[მეტი]
ქარი 230º 14kt
ხილვადობა >10km
ამინდი -
ღრუბლები Overcast 1400ft
წნევა 992
ცვლილება No Significant change. Runway 21: Wet or puddles, 51-100% contamination with 1mm, friction coefficient 0.50.
დაუმუშავებელი USPP 221400Z 23007MPS 9999 OVC014 10/08 Q0992 R21/290150 NOSIG RMK QFE734

MVFR

10°C / 8°C

[მეტი]
ქარი 230º 14kt
ხილვადობა >10km
ამინდი -
ღრუბლები Overcast 1300ft
წნევა 992
ცვლილება No Significant change. Runway 21: Wet or puddles, 51-100% contamination with 1mm, friction coefficient 0.50.
დაუმუშავებელი USPP 221330Z 23007MPS 9999 OVC013 10/08 Q0992 R21/290150 NOSIG RMK QFE734

MVFR

9°C / 7°C

[მეტი]
ქარი 230º 14kt
ხილვადობა >10km
ამინდი -
ღრუბლები Overcast 1100ft
წნევა 992
ცვლილება Temporary: Visibility 1500. Mist . RMK QFE734 . Runway 21: Wet or puddles, 51-100% contamination with 1mm, friction coefficient 0.50.
დაუმუშავებელი USPP 221300Z 23007MPS 9999 OVC011 09/07 Q0992 R21/290150 TEMPO 1500 BR RMK QFE734

IFR

9°C / 7°C

[მეტი]
ქარი 230º 14kt
ხილვადობა >10km
ამინდი -
ღრუბლები Overcast 900ft
წნევა 992
ცვლილება Temporary: Visibility 1500. Mist . RMK QFE734 . Runway 21: Wet or puddles, 51-100% contamination with 1mm, friction coefficient 0.50.
დაუმუშავებელი USPP 221230Z 23007MPS 9999 OVC009 09/07 Q0992 R21/290150 TEMPO 1500 BR RMK QFE734

IFR

9°C / 7°C

[მეტი]
ქარი 220º 16kt
ხილვადობა 9000m
ამინდი -
ღრუბლები Overcast 700ft
წნევა 992
ცვლილება Temporary: Visibility 1500. Mist . RMK QFE733 . Runway 21: Wet or puddles, 51-100% contamination with 1mm, friction coefficient 0.50.
დაუმუშავებელი USPP 221200Z 22008MPS 9000 OVC007 09/07 Q0992 R21/290150 TEMPO 1500 BR RMK QFE733

IFR

9°C / 7°C

[მეტი]
ქარი 220º 17kt
ხილვადობა 9000m
ამინდი -
ღრუბლები Overcast 600ft
წნევა 992
ცვლილება Temporary: Visibility 1500. Mist . RMK QBB200 QFE733 . Runway 21: Wet or puddles, 51-100% contamination with 1mm, friction coefficient 0.50.
დაუმუშავებელი USPP 221130Z 22009MPS 9000 OVC006 09/07 Q0992 R21/290150 TEMPO 1500 BR RMK QBB200 QFE733

IFR

8°C / 7°C

[მეტი]
ქარი 220º 16kt
ხილვადობა 9000m
ამინდი -
ღრუბლები Broken Clouds 600ft
Overcast 1700ft
წნევა 992
ცვლილება No Significant change. Runway 21: Wet or puddles, 51-100% contamination with 1mm, friction coefficient 0.50.
დაუმუშავებელი USPP 221100Z 22008MPS 9000 BKN006 OVC017 08/07 Q0992 R21/290150 NOSIG RMK QBB190 QFE734

IFR

8°C / 7°C

[მეტი]
ქარი 210º 16kt
ხილვადობა >10km
ამინდი -
ღრუბლები Broken Clouds 700ft
Overcast 1700ft
წნევა 992
ცვლილება No Significant change. Runway 21: Wet or puddles, 51-100% contamination with 1mm, friction coefficient 0.50.
დაუმუშავებელი USPP 221030Z 21008MPS 9999 BKN007 OVC017 08/07 Q0992 R21/290150 NOSIG RMK QFE734

IFR

8°C / 7°C

[მეტი]
ქარი 210º 12kt
ხილვადობა >10km
ამინდი Light Rain 1.00mm precipitation
ღრუბლები Vertical Visibility of 0ft.
Overcast 1700ft
წნევა 993
ცვლილება No Significant change. Runway 21: Wet or puddles, 51-100% contamination with 1mm, friction coefficient 0.50.
დაუმუშავებელი USPP 221000Z 21006MPS 9999 -RA BKN009 OVC017 08/07 Q0993 R21/290150 NOSIG RMK QFE734

IFR

8°C / 6°C

[მეტი]
ქარი 220º 14kt. Wind Shear present on Runway 21.
ხილვადობა >10km
ამინდი Light Rain 1.00mm precipitation
ღრუბლები Vertical Visibility of 0ft.
Overcast 2700ft
წნევა 993
ცვლილება No Significant change. Runway 21: Wet or puddles, 51-100% contamination with 1mm, friction coefficient 0.50.
დაუმუშავებელი USPP 220930Z 22007MPS 9999 -RA BKN007 OVC027 08/06 Q0993 WS R21 R21/290150 NOSIG RMK QFE734

IFR

7°C / 6°C

[მეტი]
ქარი 220º 16kt. Wind Shear present on Runway 21.
ხილვადობა >10km
ამინდი Light Rain 1.00mm precipitation
ღრუბლები Vertical Visibility of 0ft.
Overcast 2300ft
წნევა 993
ცვლილება No Significant change. Runway 21: Wet or puddles, 51-100% contamination with 1mm, friction coefficient 0.50.
დაუმუშავებელი USPP 220900Z 22008MPS 9999 -RA BKN005 OVC023 07/06 Q0993 WS R21 R21/290150 NOSIG RMK QBB160 QFE734

IFR

7°C / 6°C

[მეტი]
ქარი 220º 16kt
ხილვადობა >10km
ამინდი -
ღრუბლები Broken Clouds 600ft
Broken Clouds 2300ft
წნევა 994
ცვლილება No Significant change. Runway 21: Wet or puddles, 51-100% contamination with 1mm, friction coefficient 0.50.
დაუმუშავებელი USPP 220830Z 22008MPS 9999 BKN006 BKN023 07/06 Q0994 R21/290150 NOSIG RMK QBB190 QFE735

IFR

7°C / 6°C

[მეტი]
ქარი 220º 12kt
ხილვადობა >10km
ამინდი Light Rain 1.00mm precipitation
ღრუბლები Vertical Visibility of 0ft.
Overcast 2600ft
წნევა 993
ცვლილება No Significant change. Runway 21: Wet or puddles, 51-100% contamination with 1mm, friction coefficient 0.50.
დაუმუშავებელი USPP 220800Z 22006MPS 9999 -RA BKN007 OVC026 07/06 Q0993 R21/290150 NOSIG RMK QFE735

IFR

7°C / 6°C

[მეტი]
ქარი 220º 14kt
ხილვადობა >10km
ამინდი Light Rain 1.00mm precipitation
ღრუბლები Vertical Visibility of 0ft.
Overcast 2800ft
წნევა 994
ცვლილება No Significant change. Runway 21: Wet or puddles, 51-100% contamination with 1mm, friction coefficient 0.50.
დაუმუშავებელი USPP 220730Z 22007MPS 9999 -RA BKN006 OVC028 07/06 Q0994 R21/290150 NOSIG RMK QBB180 QFE735

LIFR

7°C / 5°C

[მეტი]
ქარი 230º 10kt
ხილვადობა >10km
ამინდი -
ღრუბლები Overcast 400ft
წნევა 994
ცვლილება No Significant change. Runway 21: Wet or puddles, 51-100% contamination with 1mm, friction coefficient 0.50.
დაუმუშავებელი USPP 220700Z 23005MPS 9999 OVC004 07/05 Q0994 R21/290150 NOSIG RMK QBB130 QFE735

LIFR

6°C / 5°C

[მეტი]
ქარი 220º 14kt
ხილვადობა >10km
ამინდი -
ღრუბლები Overcast 400ft
წნევა 994
ცვლილება No Significant change. Runway 21: Wet or puddles, 51-100% contamination with 1mm, friction coefficient 0.50.
დაუმუშავებელი USPP 220630Z 22007MPS 9999 OVC004 06/05 Q0994 R21/290150 NOSIG RMK QBB130 QFE735

LIFR

6°C / 5°C

[მეტი]
ქარი 220º 12kt
ხილვადობა >10km
ამინდი -
ღრუბლები Overcast 400ft
წნევა 994
ცვლილება No Significant change. Runway 21: Wet or puddles, 51-100% contamination with 1mm, friction coefficient 0.50.
დაუმუშავებელი USPP 220600Z 22006MPS 9999 OVC004 06/05 Q0994 R21/290150 NOSIG RMK QBB140 QFE735

LIFR

6°C / 4°C

[მეტი]
ქარი 220º 12kt
ხილვადობა >10km
ამინდი -
ღრუბლები Overcast 400ft
წნევა 994
ცვლილება No Significant change. Runway 21: Wet or puddles, 51-100% contamination with 1mm, friction coefficient 0.50.
დაუმუშავებელი USPP 220530Z 22006MPS 9999 OVC004 06/04 Q0994 R21/290150 NOSIG RMK QBB130 QFE735

LIFR

5°C / 4°C

[მეტი]
ქარი 210º 12kt
ხილვადობა >10km
ამინდი -
ღრუბლები Overcast 400ft
წნევა 995
ცვლილება No Significant change. Runway 21: Wet or puddles, 51-100% contamination with 1mm, friction coefficient 0.50.
დაუმუშავებელი USPP 220500Z 21006MPS 9999 OVC004 05/04 Q0995 R21/290150 NOSIG RMK QBB130 QFE735

LIFR

5°C / 4°C

[მეტი]
ქარი 220º 14kt
ხილვადობა >10km
ამინდი -
ღრუბლები Overcast 300ft
წნევა 995
ცვლილება No Significant change. Runway 21: Wet or puddles, 51-100% contamination with 1mm, friction coefficient 0.50.
დაუმუშავებელი USPP 220430Z 22007MPS 9999 OVC003 05/04 Q0995 R21/290150 NOSIG RMK QBB110 QFE736

LIFR

4°C / 3°C

[მეტი]
ქარი 220º 12kt
ხილვადობა >10km
ამინდი -
ღრუბლები Overcast 400ft
წნევა 995
ცვლილება No Significant change. Runway 21: Wet or puddles, 11-25% contamination with 1mm, friction coefficient 0.50.
დაუმუშავებელი USPP 220400Z 22006MPS 9999 OVC004 04/03 Q0995 R21/220150 NOSIG RMK QBB120 QFE736

LIFR

4°C / 3°C

[მეტი]
ქარი 230º 10kt
ხილვადობა >10km
ამინდი -
ღრუბლები Overcast 400ft
წნევა 995
ცვლილება No Significant change. Runway 21: Wet or puddles, 11-25% contamination with 1mm, friction coefficient 0.50.
დაუმუშავებელი USPP 220330Z 23005MPS 9999 OVC004 04/03 Q0995 R21/220150 NOSIG RMK QBB140 QFE735

IFR

3°C / 2°C

[მეტი]
ქარი 230º 8kt
ხილვადობა >10km
ამინდი -
ღრუბლები Overcast 500ft
წნევა 995
ცვლილება No Significant change. Runway 21: Wet or puddles, 11-25% contamination with 1mm, friction coefficient 0.50.
დაუმუშავებელი USPP 220300Z 23004MPS 9999 OVC005 03/02 Q0995 R21/220150 NOSIG RMK QBB150 QFE735

LIFR

3°C / 2°C

[მეტი]
ქარი 220º 10kt
ხილვადობა >10km
ამინდი -
ღრუბლები Overcast 400ft
წნევა 995
ცვლილება No Significant change. Runway 21: Wet or puddles, 11-25% contamination with 1mm, friction coefficient 0.50.
დაუმუშავებელი USPP 220230Z 22005MPS 9999 OVC004 03/02 Q0995 R21/220150 NOSIG RMK QBB130 QFE735

TAF 57.92°ჩრ. 56.02°აღმ. (USPP)-თვის

From till


From till Wind 230º 10kt. Gust 27kt. Visibility 6000m. Light Rain . Overcast 800ft.
Temporarly from till Overcast 400ft.
Becoming from till Wind 230º 10kt. Gust 27kt. Visibility 6000m. Light Rain . Broken Clouds 1600ft.
Becoming from till Wind 230º 10kt. Gust 27kt. Visibility 10km or more. Broken Clouds 1600ft.

დაუმუშავებელი: TAF USPP 221055Z 2212/2312 23005G14MPS 6000 -RA OVC008 TEMPO 2212/2215 OVC004 BECMG 2216/2217 BKN016 BECMG 2304/2306 9999 NSW

მიმდინარე სატელიტისა და წვიმის სურათები 57.92°ჩრ. 56.02°აღმ.-თვის

ლოკაციის მარკერი დაყენებყლია 57.92°ჩრ. 56.02°აღმ.ზე. [მეტი]

რეალურ დროში სატელიტური სურათი აერთიანებს ხილულ სინათლეს დღისით ღამის განმავლობაში ინფრაწითელ გამოსხივებასთან ერთად. ღამით, სურათი არ არის მუქი, რადგან ინფრაწითელ გამოსხივებას შეუძლია ტემპერატურის განსხვავებების დადგენა. სამწუხაროდ, დაბალი ღრუბლები და ნისლი ძნელია განასხვავონ მიწის ტემპერატურისგან და, შესაბამისად, ისინი შეიძლება თითქმის არ ჩანდეს ღამით. Meteosat სატელიტური გამოსახულება ევროპისთვის ახლდება რეალურ დროში ყოველ 5 წუთში. GOES-16/GOES-17 (ჩრდილოეთი და სამხრეთ ამერიკა) და ჰიმავარი (აზია) გამოსახულებები ახლდება ყოველ 10 წუთში.

საავტორო უფლებები 2021 EUMETSAT / meteoblue. / საავტორო უფლებები 2021 meteoblue

რადარის და ნალექების მაჩვენებელი 57.92°ჩრ. 56.02°აღმ. -თვის

გაწურეთ
Მსუბუქი
ზომიერი
Მძიმე
Ძალიან მძიმე
სეტყვა

მდებარეობის მარკერი მოთავსებულია 57.92°ჩრ. 56.02°აღმ. -ზე. ეს ანიმაცია აჩვენებს ნალექების სარადარო მონაცემებს როგორც ბოლო საათის განმავლობაში, ასევე 1h პროგნოზს. წვიმა ან თოვლის მსუბუქი ვარდნა შეიძლება უჩინარი იყოს რადარისთვის. ნალექების ინტენსივობა არის კოდირებული ფერით, დაწყებული ღია ლურჯიდან ნარინჯისფერამდე.